Terminal Aerodrome Forecast
Issued by NWS

Home | Current Version | Previous Version | Text Only | Print | Product List | Glossary On
Versions: 1 2 3 4 5 6 7 8 9 10 11 12 13 14 15 16 17 18 19 20 21 22 23 24 25 26
000
FTUS43 KAPX 232300
TAFPLN
TAF
KPLN 232334Z 2400/2424 30007KT P6SM BKN250
     FM240100 00000KT P6SM BKN200
     FM241400 12008KT P6SM BKN100
     FM242000 09010G16KT P6SM BKN080=

USA.gov is the U.S. government's official web portal to all federal, state and local government web resources and services.